sensor_id;sensor_type;location;lat;lon;timestamp;P1;durP1;ratioP1;P2;durP2;ratioP2
58222;SDS011;44020;50.890;15.796;2024-03-23T00:57:22;24.50;;;13.20;;
58222;SDS011;44020;50.890;15.796;2024-03-23T00:59:49;29.50;;;16.20;;
58222;SDS011;44020;50.890;15.796;2024-03-23T01:02:29;53.80;;;26.60;;
58222;SDS011;44020;50.890;15.796;2024-03-23T01:05:08;34.40;;;18.60;;
58222;SDS011;44020;50.890;15.796;2024-03-23T01:07:36;25.10;;;14.70;;
58222;SDS011;44020;50.890;15.796;2024-03-23T01:10:15;35.70;;;18.00;;
58222;SDS011;44020;50.890;15.796;2024-03-23T01:13:11;34.80;;;17.00;;
58222;SDS011;44020;50.890;15.796;2024-03-23T01:15:51;28.70;;;16.30;;
58222;SDS011;44020;50.890;15.796;2024-03-23T01:18:30;21.20;;;12.30;;
58222;SDS011;44020;50.890;15.796;2024-03-23T01:21:27;23.90;;;12.70;;
58222;SDS011;44020;50.890;15.796;2024-03-23T01:24:15;21.80;;;11.60;;
58222;SDS011;44020;50.890;15.796;2024-03-23T01:29:38;26.50;;;12.90;;
58222;SDS011;44020;50.890;15.796;2024-03-23T01:32:38;23.10;;;12.60;;
58222;SDS011;44020;50.890;15.796;2024-03-23T01:35:13;21.30;;;11.80;;
58222;SDS011;44020;50.890;15.796;2024-03-23T01:37:43;22.70;;;12.00;;
58222;SDS011;44020;50.890;15.796;2024-03-23T01:40:13;21.40;;;12.80;;
58222;SDS011;44020;50.890;15.796;2024-03-23T01:43:04;22.40;;;13.00;;
58222;SDS011;44020;50.890;15.796;2024-03-23T01:45:53;32.60;;;17.00;;
58222;SDS011;44020;50.890;15.796;2024-03-23T01:54:19;32.50;;;16.80;;
58222;SDS011;44020;50.890;15.796;2024-03-23T01:56:46;38.80;;;18.30;;
58222;SDS011;44020;50.890;15.796;2024-03-23T01:59:18;30.90;;;16.60;;
58222;SDS011;44020;50.890;15.796;2024-03-23T02:01:59;32.40;;;16.50;;
58222;SDS011;44020;50.890;15.796;2024-03-23T02:04:46;27.20;;;14.80;;
58222;SDS011;44020;50.890;15.796;2024-03-23T02:10:53;29.10;;;14.70;;
58222;SDS011;44020;50.890;15.796;2024-03-23T02:13:49;29.90;;;15.70;;
58222;SDS011;44020;50.890;15.796;2024-03-23T02:19:44;33.00;;;16.90;;
58222;SDS011;44020;50.890;15.796;2024-03-23T02:22:24;38.00;;;18.00;;
58222;SDS011;44020;50.890;15.796;2024-03-23T02:25:18;44.40;;;20.80;;
58222;SDS011;44020;50.890;15.796;2024-03-23T02:27:59;48.20;;;22.00;;
58222;SDS011;44020;50.890;15.796;2024-03-23T02:31:00;38.00;;;18.80;;
58222;SDS011;44020;50.890;15.796;2024-03-23T02:40:11;20.40;;;11.70;;
58222;SDS011;44020;50.890;15.796;2024-03-23T02:51:52;22.80;;;12.00;;
58222;SDS011;44020;50.890;15.796;2024-03-23T02:55:18;27.20;;;14.40;;
58222;SDS011;44020;50.890;15.796;2024-03-23T03:03:18;26.20;;;13.50;;
58222;SDS011;44020;50.890;15.796;2024-03-23T03:06:29;24.30;;;13.50;;
58222;SDS011;44020;50.890;15.796;2024-03-23T03:09:17;28.10;;;14.70;;
58222;SDS011;44020;50.890;15.796;2024-03-23T03:11:47;29.30;;;15.30;;
58222;SDS011;44020;50.890;15.796;2024-03-23T03:14:35;31.30;;;16.20;;
58222;SDS011;44020;50.890;15.796;2024-03-23T03:17:11;26.50;;;14.10;;
58222;SDS011;44020;50.890;15.796;2024-03-23T03:29:38;24.20;;;13.80;;
58222;SDS011;44020;50.890;15.796;2024-03-23T03:32:19;28.30;;;14.80;;
58222;SDS011;44020;50.890;15.796;2024-03-23T03:38:21;22.50;;;12.60;;
58222;SDS011;44020;50.890;15.796;2024-03-23T03:44:46;17.20;;;10.60;;
58222;SDS011;44020;50.890;15.796;2024-03-23T03:50:42;15.20;;;8.50;;
58222;SDS011;44020;50.890;15.796;2024-03-23T03:53:21;15.70;;;7.80;;
58222;SDS011;44020;50.890;15.796;2024-03-23T03:56:12;16.80;;;8.70;;
58222;SDS011;44020;50.890;15.796;2024-03-23T03:58:39;15.80;;;8.80;;
58222;SDS011;44020;50.890;15.796;2024-03-23T04:13:08;17.70;;;10.50;;
58222;SDS011;44020;50.890;15.796;2024-03-23T04:19:04;18.30;;;9.90;;
58222;SDS011;44020;50.890;15.796;2024-03-23T04:28:24;15.10;;;9.40;;
58222;SDS011;44020;50.890;15.796;2024-03-23T04:37:23;15.00;;;8.10;;
58222;SDS011;44020;50.890;15.796;2024-03-23T04:43:43;14.90;;;8.80;;
58222;SDS011;44020;50.890;15.796;2024-03-23T04:52:54;16.60;;;10.40;;
58222;SDS011;44020;50.890;15.796;2024-03-23T04:58:38;18.40;;;10.30;;
58222;SDS011;44020;50.890;15.796;2024-03-23T05:07:52;13.60;;;8.40;;
58222;SDS011;44020;50.890;15.796;2024-03-23T05:10:56;16.30;;;9.20;;
58222;SDS011;44020;50.890;15.796;2024-03-23T05:13:42;21.60;;;12.30;;
58222;SDS011;44020;50.890;15.796;2024-03-23T05:16:18;41.80;;;17.60;;
58222;SDS011;44020;50.890;15.796;2024-03-23T05:18:44;39.20;;;17.20;;
58222;SDS011;44020;50.890;15.796;2024-03-23T05:23:51;27.50;;;13.80;;
58222;SDS011;44020;50.890;15.796;2024-03-23T05:39:09;20.60;;;11.90;;
58222;SDS011;44020;50.890;15.796;2024-03-23T05:45:05;21.70;;;11.90;;
58222;SDS011;44020;50.890;15.796;2024-03-23T05:56:19;14.50;;;9.10;;
58222;SDS011;44020;50.890;15.796;2024-03-23T05:59:05;20.10;;;10.90;;
58222;SDS011;44020;50.890;15.796;2024-03-23T06:05:21;22.50;;;11.40;;
58222;SDS011;44020;50.890;15.796;2024-03-23T06:07:51;20.50;;;11.80;;
58222;SDS011;44020;50.890;15.796;2024-03-23T06:10:50;23.20;;;12.60;;
58222;SDS011;44020;50.890;15.796;2024-03-23T06:13:18;21.20;;;12.30;;
58222;SDS011;44020;50.890;15.796;2024-03-23T06:15:45;21.30;;;13.30;;
58222;SDS011;44020;50.890;15.796;2024-03-23T06:18:13;20.70;;;13.70;;
58222;SDS011;44020;50.890;15.796;2024-03-23T06:20:41;26.40;;;15.30;;
58222;SDS011;44020;50.890;15.796;2024-03-23T06:23:10;26.90;;;14.30;;
58222;SDS011;44020;50.890;15.796;2024-03-23T06:25:48;16.50;;;11.00;;
58222;SDS011;44020;50.890;15.796;2024-03-23T06:28:16;20.20;;;12.30;;
58222;SDS011;44020;50.890;15.796;2024-03-23T06:30:58;20.10;;;11.60;;
58222;SDS011;44020;50.890;15.796;2024-03-23T06:33:26;18.40;;;12.40;;
58222;SDS011;44020;50.890;15.796;2024-03-23T06:35:53;17.90;;;11.90;;
58222;SDS011;44020;50.890;15.796;2024-03-23T06:38:23;19.00;;;11.70;;
58222;SDS011;44020;50.890;15.796;2024-03-23T06:40:51;20.40;;;12.20;;
58222;SDS011;44020;50.890;15.796;2024-03-23T06:43:19;19.20;;;11.60;;
58222;SDS011;44020;50.890;15.796;2024-03-23T06:45:53;19.10;;;12.90;;
58222;SDS011;44020;50.890;15.796;2024-03-23T06:48:21;18.80;;;12.40;;
58222;SDS011;44020;50.890;15.796;2024-03-23T06:50:58;18.60;;;12.10;;
58222;SDS011;44020;50.890;15.796;2024-03-23T06:53:26;21.10;;;12.50;;
58222;SDS011;44020;50.890;15.796;2024-03-23T06:55:53;18.70;;;12.20;;
58222;SDS011;44020;50.890;15.796;2024-03-23T06:58:23;38.50;;;20.60;;
58222;SDS011;44020;50.890;15.796;2024-03-23T07:00:51;23.30;;;14.30;;
58222;SDS011;44020;50.890;15.796;2024-03-23T07:03:18;21.10;;;13.60;;
58222;SDS011;44020;50.890;15.796;2024-03-23T07:05:45;21.10;;;13.70;;
58222;SDS011;44020;50.890;15.796;2024-03-23T07:08:13;18.10;;;11.90;;
58222;SDS011;44020;50.890;15.796;2024-03-23T07:10:45;36.50;;;19.60;;
58222;SDS011;44020;50.890;15.796;2024-03-23T07:13:16;23.20;;;14.70;;
58222;SDS011;44020;50.890;15.796;2024-03-23T07:15:44;20.70;;;13.70;;
58222;SDS011;44020;50.890;15.796;2024-03-23T07:18:21;19.40;;;13.40;;
58222;SDS011;44020;50.890;15.796;2024-03-23T07:21:02;22.40;;;14.80;;
58222;SDS011;44020;50.890;15.796;2024-03-23T07:23:30;21.20;;;16.50;;
58222;SDS011;44020;50.890;15.796;2024-03-23T07:26:03;25.30;;;17.80;;
58222;SDS011;44020;50.890;15.796;2024-03-23T07:28:43;20.00;;;16.30;;
58222;SDS011;44020;50.890;15.796;2024-03-23T07:31:12;20.50;;;15.20;;
58222;SDS011;44020;50.890;15.796;2024-03-23T07:36:12;18.40;;;14.00;;
58222;SDS011;44020;50.890;15.796;2024-03-23T07:38:40;21.40;;;13.10;;
58222;SDS011;44020;50.890;15.796;2024-03-23T07:41:09;17.50;;;12.70;;
58222;SDS011;44020;50.890;15.796;2024-03-23T07:43:41;18.80;;;13.00;;
58222;SDS011;44020;50.890;15.796;2024-03-23T07:46:12;17.40;;;12.30;;
58222;SDS011;44020;50.890;15.796;2024-03-23T07:51:19;17.80;;;10.40;;
58222;SDS011;44020;50.890;15.796;2024-03-23T07:53:50;12.80;;;10.90;;
58222;SDS011;44020;50.890;15.796;2024-03-23T07:56:17;13.60;;;10.10;;
58222;SDS011;44020;50.890;15.796;2024-03-23T07:58:45;12.90;;;10.30;;
58222;SDS011;44020;50.890;15.796;2024-03-23T08:01:13;14.40;;;10.00;;
58222;SDS011;44020;50.890;15.796;2024-03-23T08:03:44;13.60;;;10.00;;
58222;SDS011;44020;50.890;15.796;2024-03-23T08:06:18;12.70;;;9.80;;
58222;SDS011;44020;50.890;15.796;2024-03-23T08:08:51;12.60;;;9.20;;
58222;SDS011;44020;50.890;15.796;2024-03-23T08:11:28;13.90;;;9.90;;
58222;SDS011;44020;50.890;15.796;2024-03-23T08:13:57;12.30;;;9.40;;
58222;SDS011;44020;50.890;15.796;2024-03-23T08:16:36;13.60;;;9.10;;
58222;SDS011;44020;50.890;15.796;2024-03-23T08:22:07;9.90;;;7.80;;
58222;SDS011;44020;50.890;15.796;2024-03-23T08:24:36;14.20;;;7.90;;
58222;SDS011;44020;50.890;15.796;2024-03-23T08:27:07;10.40;;;7.80;;
58222;SDS011;44020;50.890;15.796;2024-03-23T08:29:34;7.90;;;5.70;;
58222;SDS011;44020;50.890;15.796;2024-03-23T08:32:17;11.50;;;8.20;;
58222;SDS011;44020;50.890;15.796;2024-03-23T08:34:50;11.60;;;7.10;;
58222;SDS011;44020;50.890;15.796;2024-03-23T08:37:18;7.00;;;4.80;;
58222;SDS011;44020;50.890;15.796;2024-03-23T08:40:06;7.40;;;4.70;;
58222;SDS011;44020;50.890;15.796;2024-03-23T08:42:35;8.30;;;5.00;;
58222;SDS011;44020;50.890;15.796;2024-03-23T08:45:30;4.80;;;3.70;;
58222;SDS011;44020;50.890;15.796;2024-03-23T08:48:02;4.70;;;3.70;;
58222;SDS011;44020;50.890;15.796;2024-03-23T08:50:29;7.00;;;4.20;;
58222;SDS011;44020;50.890;15.796;2024-03-23T08:53:01;5.70;;;4.00;;
58222;SDS011;44020;50.890;15.796;2024-03-23T08:55:34;5.50;;;3.80;;
58222;SDS011;44020;50.890;15.796;2024-03-23T08:58:02;6.00;;;3.40;;
58222;SDS011;44020;50.890;15.796;2024-03-23T09:06:51;6.70;;;3.70;;
58222;SDS011;44020;50.890;15.796;2024-03-23T09:09:18;6.10;;;3.80;;
58222;SDS011;44020;50.890;15.796;2024-03-23T09:11:57;6.00;;;3.70;;
58222;SDS011;44020;50.890;15.796;2024-03-23T09:14:39;6.10;;;3.20;;
58222;SDS011;44020;50.890;15.796;2024-03-23T09:17:25;5.10;;;3.40;;
58222;SDS011;44020;50.890;15.796;2024-03-23T09:20:04;8.30;;;5.50;;
58222;SDS011;44020;50.890;15.796;2024-03-23T09:22:35;7.80;;;4.70;;
58222;SDS011;44020;50.890;15.796;2024-03-23T09:25:05;7.90;;;4.20;;
58222;SDS011;44020;50.890;15.796;2024-03-23T09:30:34;5.50;;;3.70;;
58222;SDS011;44020;50.890;15.796;2024-03-23T09:33:13;5.40;;;3.90;;
58222;SDS011;44020;50.890;15.796;2024-03-23T09:36:07;6.30;;;4.00;;
58222;SDS011;44020;50.890;15.796;2024-03-23T09:41:36;10.40;;;4.70;;
58222;SDS011;44020;50.890;15.796;2024-03-23T09:44:03;8.10;;;4.90;;
58222;SDS011;44020;50.890;15.796;2024-03-23T09:47:06;7.80;;;5.20;;
58222;SDS011;44020;50.890;15.796;2024-03-23T09:49:31;9.00;;;5.00;;
58222;SDS011;44020;50.890;15.796;2024-03-23T09:52:06;8.20;;;5.20;;
58222;SDS011;44020;50.890;15.796;2024-03-23T09:54:36;8.80;;;5.40;;
58222;SDS011;44020;50.890;15.796;2024-03-23T09:57:06;7.70;;;5.00;;
58222;SDS011;44020;50.890;15.796;2024-03-23T10:02:35;6.70;;;4.30;;
58222;SDS011;44020;50.890;15.796;2024-03-23T10:05:26;7.00;;;4.80;;
58222;SDS011;44020;50.890;15.796;2024-03-23T10:07:54;7.70;;;4.90;;
58222;SDS011;44020;50.890;15.796;2024-03-23T10:13:26;8.20;;;5.10;;
58222;SDS011;44020;50.890;15.796;2024-03-23T10:16:01;9.80;;;4.70;;
58222;SDS011;44020;50.890;15.796;2024-03-23T10:18:41;7.40;;;5.10;;
58222;SDS011;44020;50.890;15.796;2024-03-23T10:21:09;7.60;;;5.10;;
58222;SDS011;44020;50.890;15.796;2024-03-23T10:23:38;8.70;;;4.90;;
58222;SDS011;44020;50.890;15.796;2024-03-23T10:29:00;10.20;;;5.40;;
58222;SDS011;44020;50.890;15.796;2024-03-23T10:31:37;7.60;;;5.00;;
58222;SDS011;44020;50.890;15.796;2024-03-23T10:34:25;6.90;;;5.20;;
58222;SDS011;44020;50.890;15.796;2024-03-23T10:36:53;7.50;;;4.90;;
58222;SDS011;44020;50.890;15.796;2024-03-23T10:42:28;7.70;;;4.30;;
58222;SDS011;44020;50.890;15.796;2024-03-23T10:45:09;5.90;;;4.00;;
58222;SDS011;44020;50.890;15.796;2024-03-23T10:47:39;6.10;;;4.80;;
58222;SDS011;44020;50.890;15.796;2024-03-23T10:50:06;6.50;;;4.50;;
58222;SDS011;44020;50.890;15.796;2024-03-23T10:52:34;9.10;;;5.30;;
58222;SDS011;44020;50.890;15.796;2024-03-23T10:55:22;5.40;;;3.90;;
58222;SDS011;44020;50.890;15.796;2024-03-23T10:58:05;6.00;;;4.00;;
58222;SDS011;44020;50.890;15.796;2024-03-23T11:00:56;6.40;;;4.90;;
58222;SDS011;44020;50.890;15.796;2024-03-23T11:03:37;5.10;;;4.00;;
58222;SDS011;44020;50.890;15.796;2024-03-23T11:06:05;5.40;;;4.30;;
58222;SDS011;44020;50.890;15.796;2024-03-23T11:08:52;5.80;;;4.20;;
58222;SDS011;44020;50.890;15.796;2024-03-23T11:11:35;6.70;;;3.90;;
58222;SDS011;44020;50.890;15.796;2024-03-23T11:14:12;5.80;;;3.70;;
58222;SDS011;44020;50.890;15.796;2024-03-23T11:17:08;5.60;;;4.10;;
58222;SDS011;44020;50.890;15.796;2024-03-23T11:19:36;5.50;;;3.30;;
58222;SDS011;44020;50.890;15.796;2024-03-23T11:22:04;7.90;;;3.90;;
58222;SDS011;44020;50.890;15.796;2024-03-23T11:24:32;5.90;;;3.50;;
58222;SDS011;44020;50.890;15.796;2024-03-23T11:27:09;6.30;;;3.90;;
58222;SDS011;44020;50.890;15.796;2024-03-23T11:30:11;4.60;;;3.60;;
58222;SDS011;44020;50.890;15.796;2024-03-23T11:32:54;5.90;;;4.20;;
58222;SDS011;44020;50.890;15.796;2024-03-23T11:35:34;6.20;;;4.00;;
58222;SDS011;44020;50.890;15.796;2024-03-23T11:38:25;8.20;;;5.00;;
58222;SDS011;44020;50.890;15.796;2024-03-23T11:41:16;9.70;;;4.30;;
58222;SDS011;44020;50.890;15.796;2024-03-23T11:43:46;7.70;;;5.40;;
58222;SDS011;44020;50.890;15.796;2024-03-23T11:46:21;7.50;;;4.90;;
58222;SDS011;44020;50.890;15.796;2024-03-23T11:49:03;8.70;;;4.90;;
58222;SDS011;44020;50.890;15.796;2024-03-23T11:51:36;6.90;;;4.20;;
58222;SDS011;44020;50.890;15.796;2024-03-23T11:54:24;7.20;;;4.10;;
58222;SDS011;44020;50.890;15.796;2024-03-23T11:57:35;6.70;;;4.10;;
58222;SDS011;44020;50.890;15.796;2024-03-23T12:00:15;7.30;;;4.20;;
58222;SDS011;44020;50.890;15.796;2024-03-23T12:06:06;6.90;;;4.50;;
58222;SDS011;44020;50.890;15.796;2024-03-23T12:08:48;5.90;;;4.30;;
58222;SDS011;44020;50.890;15.796;2024-03-23T12:11:16;7.40;;;4.20;;
58222;SDS011;44020;50.890;15.796;2024-03-23T12:16:43;7.20;;;2.50;;
58222;SDS011;44020;50.890;15.796;2024-03-23T12:19:22;3.70;;;2.40;;
58222;SDS011;44020;50.890;15.796;2024-03-23T12:22:01;5.40;;;2.60;;
58222;SDS011;44020;50.890;15.796;2024-03-23T12:24:33;4.50;;;3.10;;
58222;SDS011;44020;50.890;15.796;2024-03-23T12:27:03;4.30;;;2.90;;
58222;SDS011;44020;50.890;15.796;2024-03-23T12:29:43;5.00;;;2.80;;
58222;SDS011;44020;50.890;15.796;2024-03-23T12:32:13;5.10;;;3.60;;
58222;SDS011;44020;50.890;15.796;2024-03-23T12:34:40;5.20;;;3.50;;
58222;SDS011;44020;50.890;15.796;2024-03-23T12:37:10;7.20;;;4.10;;
58222;SDS011;44020;50.890;15.796;2024-03-23T12:39:41;9.90;;;4.80;;
58222;SDS011;44020;50.890;15.796;2024-03-23T12:42:41;6.00;;;4.20;;
58222;SDS011;44020;50.890;15.796;2024-03-23T12:45:12;5.00;;;3.00;;
58222;SDS011;44020;50.890;15.796;2024-03-23T12:47:41;3.00;;;2.20;;
58222;SDS011;44020;50.890;15.796;2024-03-23T12:50:29;3.30;;;2.20;;
58222;SDS011;44020;50.890;15.796;2024-03-23T12:52:56;3.50;;;1.50;;
58222;SDS011;44020;50.890;15.796;2024-03-23T12:55:26;2.70;;;1.30;;
58222;SDS011;44020;50.890;15.796;2024-03-23T12:57:55;2.00;;;1.10;;
58222;SDS011;44020;50.890;15.796;2024-03-23T13:00:23;2.10;;;0.80;;
58222;SDS011;44020;50.890;15.796;2024-03-23T13:02:52;0.90;;;0.60;;
58222;SDS011;44020;50.890;15.796;2024-03-23T13:05:28;0.80;;;0.50;;
58222;SDS011;44020;50.890;15.796;2024-03-23T13:10:38;1.00;;;0.60;;
58222;SDS011;44020;50.890;15.796;2024-03-23T13:13:06;1.20;;;0.60;;
58222;SDS011;44020;50.890;15.796;2024-03-23T13:15:34;0.90;;;0.70;;
58222;SDS011;44020;50.890;15.796;2024-03-23T13:18:01;0.80;;;0.50;;
58222;SDS011;44020;50.890;15.796;2024-03-23T13:20:29;2.30;;;0.80;;
58222;SDS011;44020;50.890;15.796;2024-03-23T13:22:56;1.30;;;0.80;;
58222;SDS011;44020;50.890;15.796;2024-03-23T13:25:23;1.10;;;0.90;;
58222;SDS011;44020;50.890;15.796;2024-03-23T13:28:00;2.50;;;2.00;;
58222;SDS011;44020;50.890;15.796;2024-03-23T13:30:27;4.50;;;2.80;;
58222;SDS011;44020;50.890;15.796;2024-03-23T13:32:54;6.80;;;3.70;;
58222;SDS011;44020;50.890;15.796;2024-03-23T13:35:22;6.70;;;3.80;;
58222;SDS011;44020;50.890;15.796;2024-03-23T13:37:49;3.40;;;2.30;;
58222;SDS011;44020;50.890;15.796;2024-03-23T13:40:17;5.10;;;2.80;;
58222;SDS011;44020;50.890;15.796;2024-03-23T13:42:46;4.60;;;3.80;;
58222;SDS011;44020;50.890;15.796;2024-03-23T13:45:14;1.90;;;1.30;;
58222;SDS011;44020;50.890;15.796;2024-03-23T13:47:43;3.60;;;2.00;;
58222;SDS011;44020;50.890;15.796;2024-03-23T13:50:16;2.60;;;1.40;;
58222;SDS011;44020;50.890;15.796;2024-03-23T13:52:46;2.60;;;1.70;;
58222;SDS011;44020;50.890;15.796;2024-03-23T13:55:16;4.00;;;2.40;;
58222;SDS011;44020;50.890;15.796;2024-03-23T13:57:53;7.60;;;4.10;;
58222;SDS011;44020;50.890;15.796;2024-03-23T14:00:20;12.80;;;6.60;;
58222;SDS011;44020;50.890;15.796;2024-03-23T14:02:48;5.80;;;2.90;;
58222;SDS011;44020;50.890;15.796;2024-03-23T14:05:16;8.00;;;4.00;;
58222;SDS011;44020;50.890;15.796;2024-03-23T14:07:42;4.00;;;2.20;;
58222;SDS011;44020;50.890;15.796;2024-03-23T14:10:10;4.00;;;1.90;;
58222;SDS011;44020;50.890;15.796;2024-03-23T14:13:00;4.60;;;1.80;;
58222;SDS011;44020;50.890;15.796;2024-03-23T14:15:37;8.80;;;4.60;;
58222;SDS011;44020;50.890;15.796;2024-03-23T14:18:07;2.00;;;1.20;;
58222;SDS011;44020;50.890;15.796;2024-03-23T14:20:34;1.50;;;0.60;;
58222;SDS011;44020;50.890;15.796;2024-03-23T14:23:02;2.40;;;1.20;;
58222;SDS011;44020;50.890;15.796;2024-03-23T14:25:29;2.70;;;1.30;;
58222;SDS011;44020;50.890;15.796;2024-03-23T14:27:57;4.80;;;2.00;;
58222;SDS011;44020;50.890;15.796;2024-03-23T14:30:24;7.90;;;3.40;;
58222;SDS011;44020;50.890;15.796;2024-03-23T14:32:52;9.90;;;4.40;;
58222;SDS011;44020;50.890;15.796;2024-03-23T14:35:18;8.40;;;3.30;;
58222;SDS011;44020;50.890;15.796;2024-03-23T14:37:49;7.00;;;2.70;;
58222;SDS011;44020;50.890;15.796;2024-03-23T14:40:16;1.80;;;0.80;;
58222;SDS011;44020;50.890;15.796;2024-03-23T14:42:43;1.10;;;0.50;;
58222;SDS011;44020;50.890;15.796;2024-03-23T14:45:10;1.60;;;0.50;;
58222;SDS011;44020;50.890;15.796;2024-03-23T14:47:38;1.40;;;0.50;;
58222;SDS011;44020;50.890;15.796;2024-03-23T14:50:05;2.00;;;1.10;;
58222;SDS011;44020;50.890;15.796;2024-03-23T14:52:35;2.70;;;1.40;;
58222;SDS011;44020;50.890;15.796;2024-03-23T14:55:02;2.90;;;1.60;;
58222;SDS011;44020;50.890;15.796;2024-03-23T14:57:29;1.80;;;0.80;;
58222;SDS011;44020;50.890;15.796;2024-03-23T15:00:00;4.90;;;2.80;;
58222;SDS011;44020;50.890;15.796;2024-03-23T15:02:30;2.40;;;1.30;;
58222;SDS011;44020;50.890;15.796;2024-03-23T15:04:58;1.70;;;0.80;;
58222;SDS011;44020;50.890;15.796;2024-03-23T15:07:26;3.60;;;1.60;;
58222;SDS011;44020;50.890;15.796;2024-03-23T15:09:54;2.70;;;0.90;;
58222;SDS011;44020;50.890;15.796;2024-03-23T15:12:22;2.90;;;1.10;;
58222;SDS011;44020;50.890;15.796;2024-03-23T15:14:49;4.80;;;2.50;;
58222;SDS011;44020;50.890;15.796;2024-03-23T15:17:26;1.50;;;0.80;;
58222;SDS011;44020;50.890;15.796;2024-03-23T15:19:54;5.20;;;2.60;;
58222;SDS011;44020;50.890;15.796;2024-03-23T15:22:22;3.90;;;1.30;;
58222;SDS011;44020;50.890;15.796;2024-03-23T15:24:51;5.00;;;2.40;;
58222;SDS011;44020;50.890;15.796;2024-03-23T15:27:18;3.50;;;1.20;;
58222;SDS011;44020;50.890;15.796;2024-03-23T15:29:46;4.40;;;2.30;;
58222;SDS011;44020;50.890;15.796;2024-03-23T15:32:13;3.50;;;2.00;;
58222;SDS011;44020;50.890;15.796;2024-03-23T15:34:44;9.60;;;3.90;;
58222;SDS011;44020;50.890;15.796;2024-03-23T15:37:11;6.70;;;3.60;;
58222;SDS011;44020;50.890;15.796;2024-03-23T15:39:38;10.30;;;5.40;;
58222;SDS011;44020;50.890;15.796;2024-03-23T15:42:06;8.20;;;4.50;;
58222;SDS011;44020;50.890;15.796;2024-03-23T15:44:33;6.30;;;3.40;;
58222;SDS011;44020;50.890;15.796;2024-03-23T15:47:00;7.50;;;4.30;;
58222;SDS011;44020;50.890;15.796;2024-03-23T15:49:27;5.50;;;3.20;;
58222;SDS011;44020;50.890;15.796;2024-03-23T15:51:55;4.00;;;2.30;;
58222;SDS011;44020;50.890;15.796;2024-03-23T15:54:22;4.00;;;2.40;;
58222;SDS011;44020;50.890;15.796;2024-03-23T15:56:50;6.30;;;3.30;;
58222;SDS011;44020;50.890;15.796;2024-03-23T15:59:16;9.80;;;6.00;;
58222;SDS011;44020;50.890;15.796;2024-03-23T16:01:43;5.30;;;3.50;;
58222;SDS011;44020;50.890;15.796;2024-03-23T16:04:12;4.40;;;2.50;;
58222;SDS011;44020;50.890;15.796;2024-03-23T16:06:39;4.80;;;2.40;;
58222;SDS011;44020;50.890;15.796;2024-03-23T16:09:08;13.90;;;8.10;;
58222;SDS011;44020;50.890;15.796;2024-03-23T16:11:35;23.80;;;11.80;;
58222;SDS011;44020;50.890;15.796;2024-03-23T16:14:02;15.00;;;5.70;;
58222;SDS011;44020;50.890;15.796;2024-03-23T16:16:29;21.20;;;6.20;;
58222;SDS011;44020;50.890;15.796;2024-03-23T16:18:57;4.60;;;2.40;;
58222;SDS011;44020;50.890;15.796;2024-03-23T16:21:27;13.30;;;4.60;;
58222;SDS011;44020;50.890;15.796;2024-03-23T16:23:54;8.20;;;3.20;;
58222;SDS011;44020;50.890;15.796;2024-03-23T16:26:23;22.20;;;9.60;;
58222;SDS011;44020;50.890;15.796;2024-03-23T16:28:50;7.40;;;3.60;;
58222;SDS011;44020;50.890;15.796;2024-03-23T16:31:18;20.60;;;9.30;;
58222;SDS011;44020;50.890;15.796;2024-03-23T16:33:45;12.50;;;6.20;;
58222;SDS011;44020;50.890;15.796;2024-03-23T16:36:12;13.80;;;4.60;;
58222;SDS011;44020;50.890;15.796;2024-03-23T16:38:41;8.00;;;3.60;;
58222;SDS011;44020;50.890;15.796;2024-03-23T16:41:21;6.70;;;3.80;;
58222;SDS011;44020;50.890;15.796;2024-03-23T16:43:48;9.40;;;2.90;;
58222;SDS011;44020;50.890;15.796;2024-03-23T16:46:24;13.70;;;5.20;;
58222;SDS011;44020;50.890;15.796;2024-03-23T16:48:52;5.70;;;3.00;;
58222;SDS011;44020;50.890;15.796;2024-03-23T16:51:27;10.00;;;5.10;;
58222;SDS011;44020;50.890;15.796;2024-03-23T16:53:54;6.10;;;3.10;;
58222;SDS011;44020;50.890;15.796;2024-03-23T16:56:26;5.70;;;2.40;;
58222;SDS011;44020;50.890;15.796;2024-03-23T16:58:53;10.00;;;3.60;;
58222;SDS011;44020;50.890;15.796;2024-03-23T17:01:21;9.90;;;3.80;;
58222;SDS011;44020;50.890;15.796;2024-03-23T17:03:51;7.30;;;3.20;;
58222;SDS011;44020;50.890;15.796;2024-03-23T17:06:28;18.60;;;6.90;;
58222;SDS011;44020;50.890;15.796;2024-03-23T17:09:01;8.90;;;3.90;;
58222;SDS011;44020;50.890;15.796;2024-03-23T17:11:29;6.60;;;3.70;;
58222;SDS011;44020;50.890;15.796;2024-03-23T17:14:12;10.60;;;5.30;;
58222;SDS011;44020;50.890;15.796;2024-03-23T17:16:42;10.10;;;4.30;;
58222;SDS011;44020;50.890;15.796;2024-03-23T17:19:31;25.20;;;9.00;;
58222;SDS011;44020;50.890;15.796;2024-03-23T17:22:02;12.00;;;4.00;;
58222;SDS011;44020;50.890;15.796;2024-03-23T17:24:36;13.90;;;6.30;;
58222;SDS011;44020;50.890;15.796;2024-03-23T17:27:06;7.80;;;4.20;;
58222;SDS011;44020;50.890;15.796;2024-03-23T17:29:36;31.00;;;12.80;;
58222;SDS011;44020;50.890;15.796;2024-03-23T17:32:20;17.80;;;7.90;;
58222;SDS011;44020;50.890;15.796;2024-03-23T17:34:47;14.90;;;6.60;;
58222;SDS011;44020;50.890;15.796;2024-03-23T17:37:28;28.90;;;8.90;;
58222;SDS011;44020;50.890;15.796;2024-03-23T17:39:56;39.50;;;12.20;;
58222;SDS011;44020;50.890;15.796;2024-03-23T17:42:26;28.60;;;9.00;;
58222;SDS011;44020;50.890;15.796;2024-03-23T17:45:00;17.60;;;7.60;;
58222;SDS011;44020;50.890;15.796;2024-03-23T17:47:35;10.50;;;5.90;;
58222;SDS011;44020;50.890;15.796;2024-03-23T17:50:08;12.20;;;5.50;;
58222;SDS011;44020;50.890;15.796;2024-03-23T17:52:42;22.80;;;8.80;;
58222;SDS011;44020;50.890;15.796;2024-03-23T17:55:10;19.90;;;8.40;;
58222;SDS011;44020;50.890;15.796;2024-03-23T17:57:41;15.90;;;6.80;;
58222;SDS011;44020;50.890;15.796;2024-03-23T18:02:50;26.20;;;10.40;;
58222;SDS011;44020;50.890;15.796;2024-03-23T18:05:17;28.90;;;11.50;;
58222;SDS011;44020;50.890;15.796;2024-03-23T18:07:50;21.40;;;10.20;;
58222;SDS011;44020;50.890;15.796;2024-03-23T18:10:20;17.00;;;8.80;;
58222;SDS011;44020;50.890;15.796;2024-03-23T18:12:51;12.60;;;5.50;;
58222;SDS011;44020;50.890;15.796;2024-03-23T18:15:38;9.90;;;4.80;;
58222;SDS011;44020;50.890;15.796;2024-03-23T18:18:06;8.50;;;4.70;;
58222;SDS011;44020;50.890;15.796;2024-03-23T18:20:35;8.60;;;4.90;;
58222;SDS011;44020;50.890;15.796;2024-03-23T18:23:06;13.10;;;7.20;;
58222;SDS011;44020;50.890;15.796;2024-03-23T18:25:33;15.30;;;8.30;;
58222;SDS011;44020;50.890;15.796;2024-03-23T18:28:03;11.90;;;5.80;;
58222;SDS011;44020;50.890;15.796;2024-03-23T18:30:31;51.30;;;26.30;;
58222;SDS011;44020;50.890;15.796;2024-03-23T18:33:19;14.80;;;7.40;;
58222;SDS011;44020;50.890;15.796;2024-03-23T18:35:49;8.50;;;3.30;;
58222;SDS011;44020;50.890;15.796;2024-03-23T18:38:24;7.40;;;2.70;;
58222;SDS011;44020;50.890;15.796;2024-03-23T18:41:15;8.00;;;4.00;;
58222;SDS011;44020;50.890;15.796;2024-03-23T18:43:46;12.10;;;4.90;;
58222;SDS011;44020;50.890;15.796;2024-03-23T18:46:14;8.60;;;3.70;;
58222;SDS011;44020;50.890;15.796;2024-03-23T18:48:42;10.50;;;3.80;;
58222;SDS011;44020;50.890;15.796;2024-03-23T18:51:10;9.40;;;3.80;;
58222;SDS011;44020;50.890;15.796;2024-03-23T18:53:40;13.30;;;4.40;;
58222;SDS011;44020;50.890;15.796;2024-03-23T18:56:11;8.40;;;3.30;;
58222;SDS011;44020;50.890;15.796;2024-03-23T19:01:08;8.60;;;2.80;;